Airfield :
LOGIN :

Register | Disclaimer

   EN    FR    IT 

 










Legend :    VFR   Marginal VFR   IFR   Intensive IFR   Very Intensive IFR
Visi :
Ceiling :
>= 8 km
>= 3000ft
5 to 8 km
1000 to 3000 ft
1500m to 5 km
500 to 1000 ft
800 to 1500m
200 to 500 ft
< 800m
< 200 ft
Symbols :   Thunderstorms  Fog  Heavy snow  Heavy precipitations  Wind > 20 kt
SIGMETs :     Misc.  Thunderstorms  Icing  Turbulence  Mountain Waves  Volcanic Ashes






- Airport Elevation : 82 ft
- IATA code : ALG


DAAG - Alger Houari Boumedienne

CURRENT METAR :
  • 231900Z VRB02KT 9999 FEW023 12/09 Q1016

EXPIRED METARs :
  • 231830Z 19003KT 9999 FEW023 12/09 Q1016
  • 231800Z 28007KT 240V310 9999 FEW023 14/10 Q1016
  • 231730Z 28009KT 9999 FEW023 15/10 Q1016
  • 231700Z 29014KT 9999 FEW023 BKN200 15/09 Q1016
  • 231630Z 30017KT 9999 FEW023TCU FEW026CB BKN200 15/10 Q1016

TAF TAF DAAG
Valid from the 23 at 18:00 until the 24 at 18:00 UTC


231700Z 2318/2418 30015KT 9999 FEW023 SCT200
PROB30
TEMPO 2318/2320 FEW023TCU
BECMG 2320/2323 22010KT
PROB40
TEMPO 2400/2409 24015G30KT
BECMG 2409/2412 30015KT
PROB30
TEMPO 2409/2416 30015G25KT FEW023TCU FEW026CB



MET'MAP, your aeronautical weather chart ! - Copyright ORBIFLY December 2007 - Disclaimer

ORBIFLY MET'MAP TEAM :

Programming & Development : Alexandra Zaïnal
Concept & original design : Baudouin d'Aumeries
Assistance for programming : Marc-Olivier Méhu
Technical & hardware support : Manuel Goepfert

Contact : metmap@orbifly.com




SOURCES & CREDITS :

   NOAA